sensor_id;sensor_type;location;lat;lon;timestamp;P1;durP1;ratioP1;P2;durP2;ratioP2
71164;SDS011;58859;55.132;-1.586;2023-04-06T00:02:06;16.93;;;10.10;;
71164;SDS011;58859;55.132;-1.586;2023-04-06T00:04:31;15.68;;;9.38;;
71164;SDS011;58859;55.132;-1.586;2023-04-06T00:06:56;14.80;;;9.23;;
71164;SDS011;58859;55.132;-1.586;2023-04-06T00:09:22;16.10;;;8.73;;
71164;SDS011;58859;55.132;-1.586;2023-04-06T00:11:47;15.77;;;9.20;;
71164;SDS011;58859;55.132;-1.586;2023-04-06T00:14:12;16.10;;;9.23;;
71164;SDS011;58859;55.132;-1.586;2023-04-06T00:16:38;15.82;;;8.75;;
71164;SDS011;58859;55.132;-1.586;2023-04-06T00:19:04;17.30;;;8.70;;
71164;SDS011;58859;55.132;-1.586;2023-04-06T00:21:29;16.40;;;8.75;;
71164;SDS011;58859;55.132;-1.586;2023-04-06T00:23:56;13.13;;;7.80;;
71164;SDS011;58859;55.132;-1.586;2023-04-06T00:26:21;16.25;;;8.88;;
71164;SDS011;58859;55.132;-1.586;2023-04-06T00:28:46;10.57;;;7.13;;
71164;SDS011;58859;55.132;-1.586;2023-04-06T00:31:12;13.70;;;8.33;;
71164;SDS011;58859;55.132;-1.586;2023-04-06T00:33:37;14.97;;;8.13;;
71164;SDS011;58859;55.132;-1.586;2023-04-06T00:36:02;17.90;;;8.80;;
71164;SDS011;58859;55.132;-1.586;2023-04-06T00:38:28;15.20;;;8.43;;
71164;SDS011;58859;55.132;-1.586;2023-04-06T00:40:53;16.60;;;8.47;;
71164;SDS011;58859;55.132;-1.586;2023-04-06T00:43:19;18.13;;;8.00;;
71164;SDS011;58859;55.132;-1.586;2023-04-06T00:45:44;15.10;;;8.33;;
71164;SDS011;58859;55.132;-1.586;2023-04-06T00:48:10;14.47;;;7.73;;
71164;SDS011;58859;55.132;-1.586;2023-04-06T00:50:35;14.93;;;7.30;;
71164;SDS011;58859;55.132;-1.586;2023-04-06T00:53:01;15.97;;;8.33;;
71164;SDS011;58859;55.132;-1.586;2023-04-06T00:55:27;14.10;;;7.60;;
71164;SDS011;58859;55.132;-1.586;2023-04-06T00:57:53;16.00;;;9.27;;
71164;SDS011;58859;55.132;-1.586;2023-04-06T01:00:18;12.87;;;7.80;;
71164;SDS011;58859;55.132;-1.586;2023-04-06T01:02:44;16.55;;;8.55;;
71164;SDS011;58859;55.132;-1.586;2023-04-06T01:05:10;13.70;;;7.70;;
71164;SDS011;58859;55.132;-1.586;2023-04-06T01:07:36;14.80;;;9.05;;
71164;SDS011;58859;55.132;-1.586;2023-04-06T01:10:01;16.27;;;8.80;;
71164;SDS011;58859;55.132;-1.586;2023-04-06T01:12:27;15.75;;;8.07;;
71164;SDS011;58859;55.132;-1.586;2023-04-06T01:14:53;16.37;;;7.90;;
71164;SDS011;58859;55.132;-1.586;2023-04-06T01:17:18;14.80;;;7.97;;
71164;SDS011;58859;55.132;-1.586;2023-04-06T01:19:44;12.05;;;7.40;;
71164;SDS011;58859;55.132;-1.586;2023-04-06T01:22:14;13.83;;;7.97;;
71164;SDS011;58859;55.132;-1.586;2023-04-06T01:24:41;13.38;;;7.78;;
71164;SDS011;58859;55.132;-1.586;2023-04-06T01:27:06;16.03;;;8.33;;
71164;SDS011;58859;55.132;-1.586;2023-04-06T01:29:32;16.27;;;8.77;;
71164;SDS011;58859;55.132;-1.586;2023-04-06T01:31:57;14.40;;;8.45;;
71164;SDS011;58859;55.132;-1.586;2023-04-06T01:34:22;14.27;;;8.67;;
71164;SDS011;58859;55.132;-1.586;2023-04-06T01:36:48;16.93;;;8.77;;
71164;SDS011;58859;55.132;-1.586;2023-04-06T01:39:13;15.27;;;8.23;;
71164;SDS011;58859;55.132;-1.586;2023-04-06T01:41:38;17.33;;;8.67;;
71164;SDS011;58859;55.132;-1.586;2023-04-06T01:44:04;15.50;;;9.00;;
71164;SDS011;58859;55.132;-1.586;2023-04-06T01:46:29;17.05;;;8.95;;
71164;SDS011;58859;55.132;-1.586;2023-04-06T01:48:55;15.97;;;8.73;;
71164;SDS011;58859;55.132;-1.586;2023-04-06T01:51:20;16.40;;;9.00;;
71164;SDS011;58859;55.132;-1.586;2023-04-06T01:53:46;18.70;;;9.30;;
71164;SDS011;58859;55.132;-1.586;2023-04-06T01:56:11;17.30;;;9.52;;
71164;SDS011;58859;55.132;-1.586;2023-04-06T01:58:36;15.97;;;9.03;;
71164;SDS011;58859;55.132;-1.586;2023-04-06T02:01:02;16.20;;;8.47;;
71164;SDS011;58859;55.132;-1.586;2023-04-06T02:03:27;16.30;;;8.77;;
71164;SDS011;58859;55.132;-1.586;2023-04-06T02:05:53;14.43;;;7.70;;
71164;SDS011;58859;55.132;-1.586;2023-04-06T02:08:18;13.77;;;7.95;;
71164;SDS011;58859;55.132;-1.586;2023-04-06T02:10:43;13.60;;;7.75;;
71164;SDS011;58859;55.132;-1.586;2023-04-06T02:13:09;14.07;;;7.13;;
71164;SDS011;58859;55.132;-1.586;2023-04-06T02:15:34;12.63;;;7.17;;
71164;SDS011;58859;55.132;-1.586;2023-04-06T02:18:00;13.60;;;7.77;;
71164;SDS011;58859;55.132;-1.586;2023-04-06T02:20:25;10.85;;;6.22;;
71164;SDS011;58859;55.132;-1.586;2023-04-06T02:22:51;11.63;;;6.57;;
71164;SDS011;58859;55.132;-1.586;2023-04-06T02:25:16;11.63;;;6.20;;
71164;SDS011;58859;55.132;-1.586;2023-04-06T02:27:42;12.63;;;6.97;;
71164;SDS011;58859;55.132;-1.586;2023-04-06T02:30:07;13.02;;;6.60;;
71164;SDS011;58859;55.132;-1.586;2023-04-06T02:32:33;13.97;;;7.37;;
71164;SDS011;58859;55.132;-1.586;2023-04-06T02:34:58;11.80;;;7.00;;
71164;SDS011;58859;55.132;-1.586;2023-04-06T02:37:25;9.70;;;5.90;;
71164;SDS011;58859;55.132;-1.586;2023-04-06T02:39:50;14.43;;;6.27;;
71164;SDS011;58859;55.132;-1.586;2023-04-06T02:42:16;11.10;;;5.18;;
71164;SDS011;58859;55.132;-1.586;2023-04-06T02:44:42;11.07;;;5.93;;
71164;SDS011;58859;55.132;-1.586;2023-04-06T02:47:07;10.40;;;6.03;;
71164;SDS011;58859;55.132;-1.586;2023-04-06T02:49:33;9.53;;;5.87;;
71164;SDS011;58859;55.132;-1.586;2023-04-06T02:51:58;8.93;;;5.47;;
71164;SDS011;58859;55.132;-1.586;2023-04-06T02:54:24;8.18;;;4.82;;
71164;SDS011;58859;55.132;-1.586;2023-04-06T02:56:49;10.43;;;5.47;;
71164;SDS011;58859;55.132;-1.586;2023-04-06T02:59:15;7.97;;;5.40;;
71164;SDS011;58859;55.132;-1.586;2023-04-06T03:01:40;9.10;;;5.90;;
71164;SDS011;58859;55.132;-1.586;2023-04-06T03:04:06;9.30;;;5.55;;
71164;SDS011;58859;55.132;-1.586;2023-04-06T03:06:31;7.27;;;5.10;;
71164;SDS011;58859;55.132;-1.586;2023-04-06T03:08:56;7.47;;;4.60;;
71164;SDS011;58859;55.132;-1.586;2023-04-06T03:11:22;6.10;;;3.97;;
71164;SDS011;58859;55.132;-1.586;2023-04-06T03:13:47;6.33;;;4.20;;
71164;SDS011;58859;55.132;-1.586;2023-04-06T03:16:12;5.50;;;3.73;;
71164;SDS011;58859;55.132;-1.586;2023-04-06T03:18:38;7.47;;;4.68;;
71164;SDS011;58859;55.132;-1.586;2023-04-06T03:21:03;7.07;;;4.90;;
71164;SDS011;58859;55.132;-1.586;2023-04-06T03:23:29;6.40;;;4.40;;
71164;SDS011;58859;55.132;-1.586;2023-04-06T03:25:54;5.83;;;4.17;;
71164;SDS011;58859;55.132;-1.586;2023-04-06T03:28:20;3.83;;;3.08;;
71164;SDS011;58859;55.132;-1.586;2023-04-06T03:30:46;4.80;;;3.47;;
71164;SDS011;58859;55.132;-1.586;2023-04-06T03:33:11;4.97;;;3.80;;
71164;SDS011;58859;55.132;-1.586;2023-04-06T03:35:36;4.63;;;3.43;;
71164;SDS011;58859;55.132;-1.586;2023-04-06T03:38:03;4.97;;;3.28;;
71164;SDS011;58859;55.132;-1.586;2023-04-06T03:40:29;3.80;;;2.70;;
71164;SDS011;58859;55.132;-1.586;2023-04-06T03:42:55;4.32;;;3.10;;
71164;SDS011;58859;55.132;-1.586;2023-04-06T03:45:20;4.80;;;3.30;;
71164;SDS011;58859;55.132;-1.586;2023-04-06T03:47:46;3.77;;;3.17;;
71164;SDS011;58859;55.132;-1.586;2023-04-06T03:50:11;4.30;;;3.20;;
71164;SDS011;58859;55.132;-1.586;2023-04-06T03:52:36;3.57;;;3.00;;
71164;SDS011;58859;55.132;-1.586;2023-04-06T03:55:02;4.15;;;2.85;;
71164;SDS011;58859;55.132;-1.586;2023-04-06T03:57:27;3.50;;;2.70;;
71164;SDS011;58859;55.132;-1.586;2023-04-06T03:59:53;2.67;;;2.30;;
71164;SDS011;58859;55.132;-1.586;2023-04-06T04:02:18;4.40;;;3.60;;
71164;SDS011;58859;55.132;-1.586;2023-04-06T04:04:44;4.83;;;3.10;;
71164;SDS011;58859;55.132;-1.586;2023-04-06T04:07:09;4.38;;;3.08;;
71164;SDS011;58859;55.132;-1.586;2023-04-06T04:09:34;5.43;;;2.40;;
71164;SDS011;58859;55.132;-1.586;2023-04-06T04:12:00;3.60;;;3.10;;
71164;SDS011;58859;55.132;-1.586;2023-04-06T04:14:25;5.80;;;3.20;;
71164;SDS011;58859;55.132;-1.586;2023-04-06T04:16:51;3.28;;;2.97;;
71164;SDS011;58859;55.132;-1.586;2023-04-06T04:19:16;4.53;;;3.23;;
71164;SDS011;58859;55.132;-1.586;2023-04-06T04:21:45;4.33;;;2.87;;
71164;SDS011;58859;55.132;-1.586;2023-04-06T04:24:12;3.85;;;3.13;;
71164;SDS011;58859;55.132;-1.586;2023-04-06T04:26:38;3.35;;;2.78;;
71164;SDS011;58859;55.132;-1.586;2023-04-06T04:29:04;3.65;;;2.80;;
71164;SDS011;58859;55.132;-1.586;2023-04-06T04:31:29;3.90;;;2.95;;
71164;SDS011;58859;55.132;-1.586;2023-04-06T04:33:55;2.77;;;2.37;;
71164;SDS011;58859;55.132;-1.586;2023-04-06T04:36:20;2.70;;;2.23;;
71164;SDS011;58859;55.132;-1.586;2023-04-06T04:38:45;3.03;;;2.67;;
71164;SDS011;58859;55.132;-1.586;2023-04-06T04:41:11;4.27;;;2.40;;
71164;SDS011;58859;55.132;-1.586;2023-04-06T04:43:36;4.03;;;2.90;;
71164;SDS011;58859;55.132;-1.586;2023-04-06T04:46:02;3.83;;;2.87;;
71164;SDS011;58859;55.132;-1.586;2023-04-06T04:48:28;5.00;;;4.15;;
71164;SDS011;58859;55.132;-1.586;2023-04-06T04:50:54;3.97;;;3.50;;
71164;SDS011;58859;55.132;-1.586;2023-04-06T04:53:20;2.92;;;2.47;;
71164;SDS011;58859;55.132;-1.586;2023-04-06T04:55:45;3.53;;;2.53;;
71164;SDS011;58859;55.132;-1.586;2023-04-06T04:58:11;2.03;;;1.87;;
71164;SDS011;58859;55.132;-1.586;2023-04-06T05:00:40;2.03;;;1.83;;
71164;SDS011;58859;55.132;-1.586;2023-04-06T05:03:05;2.40;;;2.23;;
71164;SDS011;58859;55.132;-1.586;2023-04-06T05:05:31;2.53;;;1.67;;
71164;SDS011;58859;55.132;-1.586;2023-04-06T05:07:57;2.27;;;1.93;;
71164;SDS011;58859;55.132;-1.586;2023-04-06T05:10:22;1.75;;;1.60;;
71164;SDS011;58859;55.132;-1.586;2023-04-06T05:12:48;2.20;;;1.80;;
71164;SDS011;58859;55.132;-1.586;2023-04-06T05:15:13;1.70;;;1.60;;
71164;SDS011;58859;55.132;-1.586;2023-04-06T05:17:38;2.03;;;1.93;;
71164;SDS011;58859;55.132;-1.586;2023-04-06T05:20:04;1.67;;;1.50;;
71164;SDS011;58859;55.132;-1.586;2023-04-06T05:22:30;1.95;;;1.75;;
71164;SDS011;58859;55.132;-1.586;2023-04-06T05:24:56;2.10;;;1.73;;
71164;SDS011;58859;55.132;-1.586;2023-04-06T05:27:21;1.40;;;1.30;;
71164;SDS011;58859;55.132;-1.586;2023-04-06T05:29:47;1.70;;;1.50;;
71164;SDS011;58859;55.132;-1.586;2023-04-06T05:32:12;1.47;;;1.37;;
71164;SDS011;58859;55.132;-1.586;2023-04-06T05:34:38;2.00;;;1.70;;
71164;SDS011;58859;55.132;-1.586;2023-04-06T05:37:04;1.50;;;1.27;;
71164;SDS011;58859;55.132;-1.586;2023-04-06T05:39:29;1.50;;;1.40;;
71164;SDS011;58859;55.132;-1.586;2023-04-06T05:41:55;1.70;;;1.60;;
71164;SDS011;58859;55.132;-1.586;2023-04-06T05:44:20;1.40;;;1.30;;
71164;SDS011;58859;55.132;-1.586;2023-04-06T05:46:45;1.60;;;1.50;;
71164;SDS011;58859;55.132;-1.586;2023-04-06T05:49:11;1.88;;;1.30;;
71164;SDS011;58859;55.132;-1.586;2023-04-06T05:51:37;1.58;;;1.27;;
71164;SDS011;58859;55.132;-1.586;2023-04-06T05:54:02;1.20;;;1.10;;
71164;SDS011;58859;55.132;-1.586;2023-04-06T05:56:28;0.90;;;0.90;;
71164;SDS011;58859;55.132;-1.586;2023-04-06T05:58:55;1.95;;;0.82;;
71164;SDS011;58859;55.132;-1.586;2023-04-06T06:01:20;1.77;;;1.67;;
71164;SDS011;58859;55.132;-1.586;2023-04-06T06:03:46;1.77;;;1.67;;
71164;SDS011;58859;55.132;-1.586;2023-04-06T06:06:11;1.10;;;1.00;;
71164;SDS011;58859;55.132;-1.586;2023-04-06T06:08:36;0.83;;;0.83;;
71164;SDS011;58859;55.132;-1.586;2023-04-06T06:11:02;1.10;;;0.90;;
71164;SDS011;58859;55.132;-1.586;2023-04-06T06:13:28;0.93;;;0.93;;
71164;SDS011;58859;55.132;-1.586;2023-04-06T06:15:53;0.70;;;0.70;;
71164;SDS011;58859;55.132;-1.586;2023-04-06T06:18:18;0.80;;;0.80;;
71164;SDS011;58859;55.132;-1.586;2023-04-06T06:20:44;1.55;;;0.75;;
71164;SDS011;58859;55.132;-1.586;2023-04-06T06:23:10;0.77;;;0.77;;
71164;SDS011;58859;55.132;-1.586;2023-04-06T06:25:35;0.88;;;0.88;;
71164;SDS011;58859;55.132;-1.586;2023-04-06T06:28:01;1.08;;;0.82;;
71164;SDS011;58859;55.132;-1.586;2023-04-06T06:30:26;1.03;;;1.03;;
71164;SDS011;58859;55.132;-1.586;2023-04-06T06:32:51;1.37;;;1.27;;
71164;SDS011;58859;55.132;-1.586;2023-04-06T06:35:17;1.73;;;1.57;;
71164;SDS011;58859;55.132;-1.586;2023-04-06T06:37:43;2.95;;;1.55;;
71164;SDS011;58859;55.132;-1.586;2023-04-06T06:40:09;1.60;;;1.50;;
71164;SDS011;58859;55.132;-1.586;2023-04-06T06:42:35;1.60;;;1.50;;
71164;SDS011;58859;55.132;-1.586;2023-04-06T06:45:01;1.20;;;1.10;;
71164;SDS011;58859;55.132;-1.586;2023-04-06T06:47:26;1.50;;;1.40;;
71164;SDS011;58859;55.132;-1.586;2023-04-06T06:49:52;1.40;;;1.30;;
71164;SDS011;58859;55.132;-1.586;2023-04-06T06:52:17;1.00;;;1.00;;
71164;SDS011;58859;55.132;-1.586;2023-04-06T06:54:42;0.95;;;0.95;;
71164;SDS011;58859;55.132;-1.586;2023-04-06T06:57:08;1.07;;;1.07;;
71164;SDS011;58859;55.132;-1.586;2023-04-06T06:59:34;1.33;;;1.23;;
71164;SDS011;58859;55.132;-1.586;2023-04-06T07:01:59;1.17;;;1.07;;
71164;SDS011;58859;55.132;-1.586;2023-04-06T07:04:25;1.00;;;0.90;;
71164;SDS011;58859;55.132;-1.586;2023-04-06T07:06:50;2.25;;;1.10;;
71164;SDS011;58859;55.132;-1.586;2023-04-06T07:09:17;0.63;;;0.63;;
71164;SDS011;58859;55.132;-1.586;2023-04-06T07:11:43;1.33;;;0.77;;
71164;SDS011;58859;55.132;-1.586;2023-04-06T07:14:08;0.47;;;0.47;;
71164;SDS011;58859;55.132;-1.586;2023-04-06T07:16:34;0.98;;;0.73;;
71164;SDS011;58859;55.132;-1.586;2023-04-06T07:19:01;3.13;;;1.33;;
71164;SDS011;58859;55.132;-1.586;2023-04-06T07:21:26;0.65;;;0.60;;
71164;SDS011;58859;55.132;-1.586;2023-04-06T07:23:52;0.60;;;0.60;;
71164;SDS011;58859;55.132;-1.586;2023-04-06T07:26:17;5.00;;;0.67;;
71164;SDS011;58859;55.132;-1.586;2023-04-06T07:28:42;1.50;;;0.60;;
71164;SDS011;58859;55.132;-1.586;2023-04-06T07:31:08;0.73;;;0.60;;
71164;SDS011;58859;55.132;-1.586;2023-04-06T07:33:34;2.10;;;0.40;;
71164;SDS011;58859;55.132;-1.586;2023-04-06T07:35:59;1.60;;;0.50;;
71164;SDS011;58859;55.132;-1.586;2023-04-06T07:38:25;2.53;;;0.60;;
71164;SDS011;58859;55.132;-1.586;2023-04-06T07:40:50;3.10;;;0.67;;
71164;SDS011;58859;55.132;-1.586;2023-04-06T07:43:16;1.17;;;1.07;;
71164;SDS011;58859;55.132;-1.586;2023-04-06T07:45:41;2.20;;;0.80;;
71164;SDS011;58859;55.132;-1.586;2023-04-06T07:48:07;1.37;;;0.33;;
71164;SDS011;58859;55.132;-1.586;2023-04-06T07:50:32;0.97;;;0.80;;
71164;SDS011;58859;55.132;-1.586;2023-04-06T07:52:58;0.87;;;0.50;;
71164;SDS011;58859;55.132;-1.586;2023-04-06T07:55:23;1.42;;;0.65;;
71164;SDS011;58859;55.132;-1.586;2023-04-06T07:57:49;2.10;;;0.70;;
71164;SDS011;58859;55.132;-1.586;2023-04-06T08:00:14;1.77;;;0.77;;
71164;SDS011;58859;55.132;-1.586;2023-04-06T08:02:40;1.87;;;0.60;;
71164;SDS011;58859;55.132;-1.586;2023-04-06T08:05:05;1.27;;;0.95;;
71164;SDS011;58859;55.132;-1.586;2023-04-06T08:07:31;2.63;;;0.97;;
71164;SDS011;58859;55.132;-1.586;2023-04-06T08:09:56;0.65;;;0.65;;
71164;SDS011;58859;55.132;-1.586;2023-04-06T08:12:22;1.43;;;0.60;;
71164;SDS011;58859;55.132;-1.586;2023-04-06T08:14:47;2.03;;;0.63;;
71164;SDS011;58859;55.132;-1.586;2023-04-06T08:17:13;4.30;;;0.90;;
71164;SDS011;58859;55.132;-1.586;2023-04-06T08:19:38;2.35;;;0.77;;
71164;SDS011;58859;55.132;-1.586;2023-04-06T08:22:04;3.83;;;1.10;;
71164;SDS011;58859;55.132;-1.586;2023-04-06T08:24:29;2.47;;;1.00;;
71164;SDS011;58859;55.132;-1.586;2023-04-06T08:26:57;2.15;;;0.90;;
71164;SDS011;58859;55.132;-1.586;2023-04-06T08:29:22;3.13;;;0.80;;
71164;SDS011;58859;55.132;-1.586;2023-04-06T08:31:48;1.43;;;0.73;;
71164;SDS011;58859;55.132;-1.586;2023-04-06T08:34:13;3.07;;;0.90;;
71164;SDS011;58859;55.132;-1.586;2023-04-06T08:36:38;2.88;;;0.70;;
71164;SDS011;58859;55.132;-1.586;2023-04-06T08:39:04;2.13;;;0.60;;
71164;SDS011;58859;55.132;-1.586;2023-04-06T08:41:29;3.13;;;1.00;;
71164;SDS011;58859;55.132;-1.586;2023-04-06T08:43:59;1.60;;;0.77;;
71164;SDS011;58859;55.132;-1.586;2023-04-06T08:46:25;1.92;;;0.65;;
71164;SDS011;58859;55.132;-1.586;2023-04-06T08:48:59;4.22;;;1.15;;
71164;SDS011;58859;55.132;-1.586;2023-04-06T08:51:27;3.35;;;1.10;;
71164;SDS011;58859;55.132;-1.586;2023-04-06T08:53:55;2.78;;;0.75;;
71164;SDS011;58859;55.132;-1.586;2023-04-06T08:56:25;2.77;;;0.70;;
71164;SDS011;58859;55.132;-1.586;2023-04-06T08:58:52;4.07;;;1.08;;
71164;SDS011;58859;55.132;-1.586;2023-04-06T09:01:23;3.90;;;1.10;;
71164;SDS011;58859;55.132;-1.586;2023-04-06T09:03:57;3.40;;;0.73;;
71164;SDS011;58859;55.132;-1.586;2023-04-06T09:06:25;6.32;;;1.15;;
71164;SDS011;58859;55.132;-1.586;2023-04-06T09:08:56;3.33;;;0.87;;
71164;SDS011;58859;55.132;-1.586;2023-04-06T09:11:22;3.60;;;0.90;;
71164;SDS011;58859;55.132;-1.586;2023-04-06T09:13:49;0.98;;;0.98;;
71164;SDS011;58859;55.132;-1.586;2023-04-06T09:16:19;1.77;;;0.60;;
71164;SDS011;58859;55.132;-1.586;2023-04-06T09:18:45;3.65;;;0.50;;
71164;SDS011;58859;55.132;-1.586;2023-04-06T09:21:11;3.70;;;1.10;;
71164;SDS011;58859;55.132;-1.586;2023-04-06T09:23:37;3.30;;;0.70;;
71164;SDS011;58859;55.132;-1.586;2023-04-06T09:26:13;6.35;;;0.80;;
71164;SDS011;58859;55.132;-1.586;2023-04-06T09:28:49;4.57;;;1.20;;
71164;SDS011;58859;55.132;-1.586;2023-04-06T09:31:17;3.88;;;0.90;;
71164;SDS011;58859;55.132;-1.586;2023-04-06T09:33:47;2.50;;;0.68;;
71164;SDS011;58859;55.132;-1.586;2023-04-06T09:36:13;1.08;;;0.60;;
71164;SDS011;58859;55.132;-1.586;2023-04-06T09:38:56;3.92;;;0.90;;
71164;SDS011;58859;55.132;-1.586;2023-04-06T09:41:30;2.50;;;0.60;;
71164;SDS011;58859;55.132;-1.586;2023-04-06T09:44:04;4.05;;;0.70;;
71164;SDS011;58859;55.132;-1.586;2023-04-06T09:46:40;4.07;;;0.70;;
71164;SDS011;58859;55.132;-1.586;2023-04-06T09:49:06;4.82;;;0.55;;
71164;SDS011;58859;55.132;-1.586;2023-04-06T09:51:37;4.53;;;1.08;;
71164;SDS011;58859;55.132;-1.586;2023-04-06T09:54:18;3.60;;;0.45;;
71164;SDS011;58859;55.132;-1.586;2023-04-06T09:56:47;2.80;;;1.02;;
71164;SDS011;58859;55.132;-1.586;2023-04-06T09:59:28;2.87;;;0.60;;
71164;SDS011;58859;55.132;-1.586;2023-04-06T10:01:54;1.58;;;0.38;;
71164;SDS011;58859;55.132;-1.586;2023-04-06T10:07:06;2.15;;;0.60;;
71164;SDS011;58859;55.132;-1.586;2023-04-06T10:09:34;1.83;;;0.75;;
71164;SDS011;58859;55.132;-1.586;2023-04-06T10:12:03;3.90;;;1.00;;
71164;SDS011;58859;55.132;-1.586;2023-04-06T10:14:34;1.10;;;0.57;;
71164;SDS011;58859;55.132;-1.586;2023-04-06T10:17:05;4.13;;;0.80;;
71164;SDS011;58859;55.132;-1.586;2023-04-06T10:19:34;4.72;;;0.57;;
71164;SDS011;58859;55.132;-1.586;2023-04-06T10:22:06;1.45;;;0.65;;
71164;SDS011;58859;55.132;-1.586;2023-04-06T10:24:35;4.13;;;0.50;;
71164;SDS011;58859;55.132;-1.586;2023-04-06T10:27:01;1.88;;;0.40;;
71164;SDS011;58859;55.132;-1.586;2023-04-06T10:29:28;4.90;;;0.77;;
71164;SDS011;58859;55.132;-1.586;2023-04-06T10:32:05;3.10;;;0.30;;
71164;SDS011;58859;55.132;-1.586;2023-04-06T10:34:34;2.33;;;0.70;;
71164;SDS011;58859;55.132;-1.586;2023-04-06T10:37:09;1.35;;;0.50;;
71164;SDS011;58859;55.132;-1.586;2023-04-06T10:39:36;3.20;;;0.73;;
71164;SDS011;58859;55.132;-1.586;2023-04-06T10:42:11;2.92;;;0.52;;
71164;SDS011;58859;55.132;-1.586;2023-04-06T10:44:41;2.27;;;0.47;;
71164;SDS011;58859;55.132;-1.586;2023-04-06T10:47:15;1.15;;;0.50;;
71164;SDS011;58859;55.132;-1.586;2023-04-06T10:49:42;3.95;;;1.00;;
71164;SDS011;58859;55.132;-1.586;2023-04-06T10:52:07;1.35;;;0.45;;
71164;SDS011;58859;55.132;-1.586;2023-04-06T10:54:33;1.93;;;0.50;;
71164;SDS011;58859;55.132;-1.586;2023-04-06T10:56:59;6.22;;;1.05;;
71164;SDS011;58859;55.132;-1.586;2023-04-06T10:59:28;6.97;;;0.60;;
71164;SDS011;58859;55.132;-1.586;2023-04-06T11:01:53;3.33;;;0.70;;
71164;SDS011;58859;55.132;-1.586;2023-04-06T11:04:20;2.92;;;0.80;;
71164;SDS011;58859;55.132;-1.586;2023-04-06T11:06:46;3.15;;;0.60;;
71164;SDS011;58859;55.132;-1.586;2023-04-06T11:09:22;3.60;;;0.50;;
71164;SDS011;58859;55.132;-1.586;2023-04-06T11:11:56;2.65;;;0.90;;
71164;SDS011;58859;55.132;-1.586;2023-04-06T11:14:22;2.67;;;0.40;;
71164;SDS011;58859;55.132;-1.586;2023-04-06T11:16:47;1.87;;;0.30;;
71164;SDS011;58859;55.132;-1.586;2023-04-06T11:19:15;1.55;;;0.38;;
71164;SDS011;58859;55.132;-1.586;2023-04-06T11:24:12;1.17;;;0.40;;
71164;SDS011;58859;55.132;-1.586;2023-04-06T11:26:49;1.65;;;0.32;;
71164;SDS011;58859;55.132;-1.586;2023-04-06T11:31:49;2.47;;;0.25;;
71164;SDS011;58859;55.132;-1.586;2023-04-06T11:34:19;0.47;;;0.40;;
71164;SDS011;58859;55.132;-1.586;2023-04-06T11:36:47;1.20;;;0.37;;
71164;SDS011;58859;55.132;-1.586;2023-04-06T11:39:23;2.40;;;0.50;;
71164;SDS011;58859;55.132;-1.586;2023-04-06T11:41:51;0.30;;;0.30;;
71164;SDS011;58859;55.132;-1.586;2023-04-06T11:44:37;1.73;;;0.38;;
71164;SDS011;58859;55.132;-1.586;2023-04-06T11:47:07;0.98;;;0.17;;
71164;SDS011;58859;55.132;-1.586;2023-04-06T11:49:36;0.73;;;0.20;;
71164;SDS011;58859;55.132;-1.586;2023-04-06T11:52:13;2.58;;;0.45;;
71164;SDS011;58859;55.132;-1.586;2023-04-06T11:54:46;0.35;;;0.13;;
71164;SDS011;58859;55.132;-1.586;2023-04-06T11:57:12;0.55;;;0.10;;
71164;SDS011;58859;55.132;-1.586;2023-04-06T11:59:38;0.47;;;0.40;;
71164;SDS011;58859;55.132;-1.586;2023-04-06T12:02:04;2.08;;;0.47;;
71164;SDS011;58859;55.132;-1.586;2023-04-06T12:04:30;1.30;;;0.30;;
71164;SDS011;58859;55.132;-1.586;2023-04-06T12:06:56;4.30;;;0.60;;
71164;SDS011;58859;55.132;-1.586;2023-04-06T12:09:22;0.57;;;0.30;;
71164;SDS011;58859;55.132;-1.586;2023-04-06T12:11:47;3.23;;;0.40;;
71164;SDS011;58859;55.132;-1.586;2023-04-06T12:14:12;0.20;;;0.20;;
71164;SDS011;58859;55.132;-1.586;2023-04-06T12:16:38;0.95;;;0.40;;
71164;SDS011;58859;55.132;-1.586;2023-04-06T12:19:04;1.20;;;0.28;;
71164;SDS011;58859;55.132;-1.586;2023-04-06T12:21:30;0.20;;;0.20;;
71164;SDS011;58859;55.132;-1.586;2023-04-06T12:23:59;0.20;;;0.20;;
71164;SDS011;58859;55.132;-1.586;2023-04-06T12:26:25;0.60;;;0.33;;
71164;SDS011;58859;55.132;-1.586;2023-04-06T12:28:51;1.23;;;0.20;;
71164;SDS011;58859;55.132;-1.586;2023-04-06T12:31:17;0.52;;;0.10;;
71164;SDS011;58859;55.132;-1.586;2023-04-06T12:33:47;2.00;;;0.50;;
71164;SDS011;58859;55.132;-1.586;2023-04-06T12:36:14;2.20;;;0.32;;
71164;SDS011;58859;55.132;-1.586;2023-04-06T12:38:41;0.75;;;0.30;;
71164;SDS011;58859;55.132;-1.586;2023-04-06T12:41:06;0.30;;;0.30;;
71164;SDS011;58859;55.132;-1.586;2023-04-06T12:43:32;1.17;;;0.38;;
71164;SDS011;58859;55.132;-1.586;2023-04-06T12:45:58;0.80;;;0.50;;
71164;SDS011;58859;55.132;-1.586;2023-04-06T12:48:24;0.40;;;0.37;;
71164;SDS011;58859;55.132;-1.586;2023-04-06T12:51:00;0.28;;;0.10;;
71164;SDS011;58859;55.132;-1.586;2023-04-06T12:53:27;1.27;;;0.43;;
71164;SDS011;58859;55.132;-1.586;2023-04-06T12:55:53;1.20;;;0.53;;
71164;SDS011;58859;55.132;-1.586;2023-04-06T12:58:20;2.67;;;0.68;;
71164;SDS011;58859;55.132;-1.586;2023-04-06T13:00:46;0.55;;;0.55;;
71164;SDS011;58859;55.132;-1.586;2023-04-06T13:03:12;0.65;;;0.30;;
71164;SDS011;58859;55.132;-1.586;2023-04-06T13:05:46;0.40;;;0.30;;
71164;SDS011;58859;55.132;-1.586;2023-04-06T13:08:13;0.60;;;0.57;;
71164;SDS011;58859;55.132;-1.586;2023-04-06T13:10:49;0.30;;;0.30;;
71164;SDS011;58859;55.132;-1.586;2023-04-06T13:13:22;0.20;;;0.20;;
71164;SDS011;58859;55.132;-1.586;2023-04-06T13:15:48;2.90;;;0.40;;
71164;SDS011;58859;55.132;-1.586;2023-04-06T13:18:14;0.85;;;0.60;;
71164;SDS011;58859;55.132;-1.586;2023-04-06T13:20:40;2.33;;;0.30;;
71164;SDS011;58859;55.132;-1.586;2023-04-06T13:23:06;0.20;;;0.20;;
71164;SDS011;58859;55.132;-1.586;2023-04-06T13:25:31;1.47;;;0.33;;
71164;SDS011;58859;55.132;-1.586;2023-04-06T13:27:57;1.75;;;0.30;;
71164;SDS011;58859;55.132;-1.586;2023-04-06T13:30:23;1.25;;;0.32;;
71164;SDS011;58859;55.132;-1.586;2023-04-06T13:32:48;2.53;;;0.20;;
71164;SDS011;58859;55.132;-1.586;2023-04-06T13:35:14;0.17;;;0.17;;
71164;SDS011;58859;55.132;-1.586;2023-04-06T13:37:39;2.53;;;0.40;;
71164;SDS011;58859;55.132;-1.586;2023-04-06T13:40:05;1.13;;;0.10;;
71164;SDS011;58859;55.132;-1.586;2023-04-06T13:42:31;0.30;;;0.30;;
71164;SDS011;58859;55.132;-1.586;2023-04-06T13:44:57;0.52;;;0.20;;
71164;SDS011;58859;55.132;-1.586;2023-04-06T13:47:23;0.65;;;0.30;;
71164;SDS011;58859;55.132;-1.586;2023-04-06T13:49:51;0.77;;;0.30;;
71164;SDS011;58859;55.132;-1.586;2023-04-06T13:52:18;0.38;;;0.28;;
71164;SDS011;58859;55.132;-1.586;2023-04-06T13:54:43;0.40;;;0.25;;
71164;SDS011;58859;55.132;-1.586;2023-04-06T13:57:10;0.30;;;0.30;;
71164;SDS011;58859;55.132;-1.586;2023-04-06T13:59:36;0.47;;;0.20;;
71164;SDS011;58859;55.132;-1.586;2023-04-06T14:02:02;1.38;;;0.70;;
71164;SDS011;58859;55.132;-1.586;2023-04-06T14:04:29;0.10;;;0.10;;
71164;SDS011;58859;55.132;-1.586;2023-04-06T14:06:55;0.52;;;0.32;;
71164;SDS011;58859;55.132;-1.586;2023-04-06T14:09:20;1.07;;;0.57;;
71164;SDS011;58859;55.132;-1.586;2023-04-06T14:11:46;0.20;;;0.20;;
71164;SDS011;58859;55.132;-1.586;2023-04-06T14:14:11;0.80;;;0.40;;
71164;SDS011;58859;55.132;-1.586;2023-04-06T14:16:37;3.42;;;0.70;;
71164;SDS011;58859;55.132;-1.586;2023-04-06T14:19:03;0.80;;;0.30;;
71164;SDS011;58859;55.132;-1.586;2023-04-06T14:21:28;1.43;;;0.57;;
71164;SDS011;58859;55.132;-1.586;2023-04-06T14:23:54;3.50;;;0.30;;
71164;SDS011;58859;55.132;-1.586;2023-04-06T14:26:20;0.25;;;0.25;;
71164;SDS011;58859;55.132;-1.586;2023-04-06T14:28:45;1.80;;;0.85;;
71164;SDS011;58859;55.132;-1.586;2023-04-06T14:31:12;0.83;;;0.20;;
71164;SDS011;58859;55.132;-1.586;2023-04-06T14:33:40;0.30;;;0.30;;
71164;SDS011;58859;55.132;-1.586;2023-04-06T14:36:06;1.52;;;0.50;;